Time;durP1;ratioP1;P1;durP2;ratioP2;P2;SDS_P1;SDS_P2;PMS_P1;PMS_P2;Temp;Humidity;BMP_temperature;BMP_pressure;BME280_temperature;BME280_humidity;BME280_pressure;Samples;Min_cycle;Max_cycle;Signal;HPM_P1;HPM_P2
2022/08/08 00:00:07;;;;;;;1.13;1.03;;;;;;;;;;5048471;28;20224;-62
2022/08/08 00:03:01;;;;;;;1.10;1.10;;;;;;;;;;5045671;28;20197;-62
2022/08/08 00:05:54;;;;;;;0.73;0.73;;;;;;;;;;5049545;28;20222;-62
2022/08/08 00:08:48;;;;;;;0.80;0.80;;;;;;;;;;5051013;28;20209;-62
2022/08/08 00:11:40;;;;;;;1.90;0.70;;;;;;;;;;5049336;28;20228;-62
2022/08/08 00:14:41;;;;;;;0.73;0.73;;;;;;;;;;5049180;28;20267;-62
2022/08/08 00:17:40;;;;;;;0.83;0.83;;;;;;;;;;5050517;28;20912;-62
2022/08/08 00:20:34;;;;;;;0.70;0.70;;;;;;;;;;5047276;28;20375;-62
2022/08/08 00:23:27;;;;;;;0.70;0.70;;;;;;;;;;5049257;28;20200;-62
2022/08/08 00:26:18;;;;;;;0.73;0.73;;;;;;;;;;5047334;28;20206;-61
2022/08/08 00:29:14;;;;;;;0.90;0.80;;;;;;;;;;5051121;28;20212;-62
2022/08/08 00:32:06;;;;;;;0.90;0.90;;;;;;;;;;5046297;28;20514;-62
2022/08/08 00:35:26;;;;;;;1.13;0.60;;;;;;;;;;5049545;28;20655;-61
2022/08/08 00:38:40;;;;;;;0.80;0.80;;;;;;;;;;5051406;28;20216;-62
2022/08/08 00:42:21;;;;;;;0.70;0.70;;;;;;;;;;5050538;28;20283;-62
2022/08/08 00:45:52;;;;;;;0.70;0.70;;;;;;;;;;4976608;28;20229;-62
2022/08/08 00:49:02;;;;;;;0.77;0.77;;;;;;;;;;4959341;28;20212;-62
2022/08/08 00:52:23;;;;;;;0.97;0.97;;;;;;;;;;5053816;28;20209;-62
2022/08/08 00:55:52;;;;;;;0.60;0.60;;;;;;;;;;5047703;28;20455;-62
2022/08/08 00:59:18;;;;;;;0.70;0.70;;;;;;;;;;5048980;28;20202;-62
2022/08/08 01:02:39;;;;;;;0.60;0.60;;;;;;;;;;5045615;28;20872;-62
2022/08/08 01:05:58;;;;;;;0.70;0.70;;;;;;;;;;5052114;28;20226;-62
2022/08/08 01:09:07;;;;;;;0.53;0.53;;;;;;;;;;5053247;28;20319;-62
2022/08/08 01:12:35;;;;;;;1.27;0.80;;;;;;;;;;5046228;28;20208;-62
2022/08/08 01:15:46;;;;;;;1.33;0.70;;;;;;;;;;5046320;28;20197;-62
2022/08/08 01:18:57;;;;;;;0.77;0.60;;;;;;;;;;5056794;28;20685;-62
2022/08/08 01:22:11;;;;;;;0.67;0.67;;;;;;;;;;5045913;28;20240;-62
2022/08/08 01:25:15;;;;;;;0.73;0.70;;;;;;;;;;5053653;28;20342;-62
2022/08/08 01:28:27;;;;;;;0.60;0.60;;;;;;;;;;5057034;28;20243;-62
2022/08/08 01:31:53;;;;;;;0.60;0.60;;;;;;;;;;5053469;28;20198;-62
2022/08/08 01:35:00;;;;;;;0.53;0.53;;;;;;;;;;5061785;28;20866;-62
2022/08/08 01:38:14;;;;;;;0.93;0.80;;;;;;;;;;5055377;28;20251;-62
2022/08/08 01:41:08;;;;;;;0.70;0.70;;;;;;;;;;5057633;28;20270;-62
2022/08/08 01:44:23;;;;;;;0.67;0.67;;;;;;;;;;5056053;28;20288;-62
2022/08/08 01:47:19;;;;;;;0.63;0.63;;;;;;;;;;5051691;28;20205;-62
2022/08/08 01:50:17;;;;;;;0.50;0.50;;;;;;;;;;5057918;28;20213;-62
2022/08/08 01:53:15;;;;;;;0.80;0.80;;;;;;;;;;5056983;28;20801;-62
2022/08/08 01:56:10;;;;;;;0.70;0.70;;;;;;;;;;5059696;28;20563;-62
2022/08/08 01:59:14;;;;;;;0.50;0.50;;;;;;;;;;5053710;28;20229;-62
2022/08/08 02:02:09;;;;;;;0.50;0.50;;;;;;;;;;5060714;28;20209;-61
2022/08/08 02:05:04;;;;;;;0.60;0.60;;;;;;;;;;5043765;28;20675;-62
2022/08/08 02:08:05;;;;;;;0.50;0.50;;;;;;;;;;5063425;28;20213;-61
2022/08/08 02:11:03;;;;;;;0.70;0.70;;;;;;;;;;5052442;28;20253;-62
2022/08/08 02:13:55;;;;;;;0.70;0.70;;;;;;;;;;5058816;28;20673;-62
2022/08/08 02:16:52;;;;;;;0.53;0.53;;;;;;;;;;5051930;28;20700;-62
2022/08/08 02:19:55;;;;;;;0.70;0.70;;;;;;;;;;5058863;28;20291;-62
2022/08/08 02:22:52;;;;;;;0.67;0.67;;;;;;;;;;5050152;28;20210;-62
2022/08/08 02:25:48;;;;;;;0.60;0.60;;;;;;;;;;5056897;28;20217;-62
2022/08/08 02:28:47;;;;;;;0.70;0.70;;;;;;;;;;5057683;28;20233;-62
2022/08/08 02:31:55;;;;;;;0.57;0.57;;;;;;;;;;5049877;28;20233;-62
2022/08/08 02:34:55;;;;;;;1.40;0.67;;;;;;;;;;5061778;28;20262;-62
2022/08/08 02:38:08;;;;;;;0.63;0.63;;;;;;;;;;5046804;28;20567;-62
2022/08/08 02:41:14;;;;;;;0.70;0.70;;;;;;;;;;5051217;28;20241;-62
2022/08/08 02:44:39;;;;;;;0.70;0.70;;;;;;;;;;5057885;28;20336;-62
2022/08/08 02:47:58;;;;;;;0.60;0.60;;;;;;;;;;5047893;28;20211;-62
2022/08/08 02:51:19;;;;;;;0.80;0.80;;;;;;;;;;5047025;28;20204;-62
2022/08/08 02:54:25;;;;;;;0.60;0.60;;;;;;;;;;5034114;28;20235;-62
2022/08/08 02:57:51;;;;;;;0.63;0.63;;;;;;;;;;5050692;28;20230;-62
2022/08/08 03:01:05;;;;;;;0.63;0.60;;;;;;;;;;5054968;28;20221;-62
2022/08/08 03:04:39;;;;;;;0.60;0.60;;;;;;;;;;5031080;28;20751;-61
2022/08/08 03:08:25;;;;;;;0.70;0.70;;;;;;;;;;5053817;28;20209;-62
2022/08/08 03:11:50;;;;;;;0.60;0.60;;;;;;;;;;5030441;28;20692;-62
2022/08/08 03:14:59;;;;;;;1.23;0.90;;;;;;;;;;5051273;28;20797;-61
2022/08/08 03:17:52;;;;;;;0.50;0.50;;;;;;;;;;5051284;28;20225;-61
2022/08/08 03:20:42;;;;;;;2.00;0.80;;;;;;;;;;5039494;28;20707;-62
2022/08/08 03:23:30;;;;;;;0.80;0.80;;;;;;;;;;5055233;28;20292;-61
2022/08/08 03:26:30;;;;;;;0.63;0.63;;;;;;;;;;5053673;28;20360;-61
2022/08/08 03:29:21;;;;;;;0.73;0.73;;;;;;;;;;5061360;28;20271;-62
2022/08/08 03:35:13;;;;;;;0.60;0.60;;;;;;;;;;5052943;28;20499;-62
2022/08/08 03:38:01;;;;;;;0.60;0.60;;;;;;;;;;5041561;28;20624;-61
2022/08/08 03:40:54;;;;;;;0.73;0.73;;;;;;;;;;5046046;28;20221;-62
2022/08/08 03:43:41;;;;;;;0.70;0.70;;;;;;;;;;5050470;28;20209;-62
2022/08/08 03:46:28;;;;;;;1.00;0.90;;;;;;;;;;5050245;28;20243;-62
2022/08/08 03:49:19;;;;;;;0.70;0.70;;;;;;;;;;5056032;28;20286;-62
2022/08/08 03:52:06;;;;;;;0.70;0.70;;;;;;;;;;5049374;28;20575;-62
2022/08/08 03:54:54;;;;;;;0.60;0.60;;;;;;;;;;5058926;28;20702;-62
2022/08/08 03:57:46;;;;;;;0.73;0.73;;;;;;;;;;5049112;28;20214;-62
2022/08/08 04:00:33;;;;;;;0.80;0.80;;;;;;;;;;5057944;28;20306;-61
2022/08/08 04:03:21;;;;;;;0.70;0.70;;;;;;;;;;5051177;28;20201;-62
2022/08/08 04:06:09;;;;;;;0.70;0.70;;;;;;;;;;5057668;28;20227;-62
2022/08/08 04:08:56;;;;;;;0.80;0.80;;;;;;;;;;5045397;28;20213;-61
2022/08/08 04:11:43;;;;;;;0.60;0.60;;;;;;;;;;5061220;28;20230;-61
2022/08/08 04:14:32;;;;;;;0.80;0.80;;;;;;;;;;5046391;28;20289;-62
2022/08/08 04:17:19;;;;;;;1.10;0.80;;;;;;;;;;5051033;28;20214;-62
2022/08/08 04:20:07;;;;;;;0.73;0.73;;;;;;;;;;5040551;28;20229;-62
2022/08/08 04:22:53;;;;;;;1.07;0.80;;;;;;;;;;5053602;28;20202;-62
2022/08/08 04:25:41;;;;;;;0.80;0.80;;;;;;;;;;5049062;28;20213;-61
2022/08/08 04:28:28;;;;;;;0.97;0.97;;;;;;;;;;5052461;28;20797;-62
2022/08/08 04:31:16;;;;;;;0.70;0.70;;;;;;;;;;5048064;28;20206;-62
2022/08/08 04:34:03;;;;;;;1.20;1.03;;;;;;;;;;5059300;28;20617;-62
2022/08/08 04:36:50;;;;;;;0.70;0.70;;;;;;;;;;5048704;28;20311;-61
2022/08/08 04:39:37;;;;;;;0.80;0.80;;;;;;;;;;5057464;28;20216;-61
2022/08/08 04:42:24;;;;;;;0.70;0.70;;;;;;;;;;5051147;28;20601;-62
2022/08/08 04:45:11;;;;;;;0.80;0.80;;;;;;;;;;5051322;28;20261;-61
2022/08/08 04:48:00;;;;;;;0.70;0.70;;;;;;;;;;5038476;28;20214;-62
2022/08/08 04:50:47;;;;;;;0.80;0.80;;;;;;;;;;5059113;28;20222;-62
2022/08/08 04:53:34;;;;;;;1.17;0.97;;;;;;;;;;5046997;28;20212;-62
2022/08/08 04:56:21;;;;;;;1.10;1.00;;;;;;;;;;5050065;28;20249;-62
2022/08/08 04:59:08;;;;;;;0.80;0.80;;;;;;;;;;5054230;28;20212;-62
2022/08/08 05:01:55;;;;;;;0.87;0.87;;;;;;;;;;5053509;28;20224;-62
2022/08/08 05:04:43;;;;;;;0.67;0.67;;;;;;;;;;5048238;28;20352;-62
2022/08/08 05:07:31;;;;;;;1.00;1.00;;;;;;;;;;5052267;28;20632;-62
2022/08/08 05:10:17;;;;;;;0.80;0.80;;;;;;;;;;5058680;28;20203;-62
2022/08/08 05:13:04;;;;;;;1.10;1.00;;;;;;;;;;5056083;28;20214;-62
2022/08/08 05:15:51;;;;;;;0.90;0.90;;;;;;;;;;5050751;28;20773;-62
2022/08/08 05:18:38;;;;;;;0.83;0.83;;;;;;;;;;5057207;28;20575;-62
2022/08/08 05:21:27;;;;;;;0.70;0.70;;;;;;;;;;5049770;28;20315;-61
2022/08/08 05:24:13;;;;;;;0.90;0.90;;;;;;;;;;5045036;28;20210;-62
2022/08/08 05:27:00;;;;;;;0.90;0.90;;;;;;;;;;5056583;28;20304;-62
2022/08/08 05:29:47;;;;;;;0.83;0.83;;;;;;;;;;5051239;28;20296;-62
2022/08/08 05:32:34;;;;;;;0.90;0.90;;;;;;;;;;5065454;28;20671;-62
2022/08/08 05:35:23;;;;;;;0.83;0.83;;;;;;;;;;5052968;28;20211;-61
2022/08/08 05:38:17;;;;;;;0.80;0.80;;;;;;;;;;5060106;28;20238;-62
2022/08/08 05:41:05;;;;;;;1.20;0.90;;;;;;;;;;5042987;28;20237;-62
2022/08/08 05:44:03;;;;;;;0.90;0.90;;;;;;;;;;5057212;28;20242;-62
2022/08/08 05:46:52;;;;;;;1.00;1.00;;;;;;;;;;5049126;28;20207;-61
2022/08/08 05:49:40;;;;;;;0.90;0.90;;;;;;;;;;5057993;28;20253;-61
2022/08/08 05:52:28;;;;;;;0.87;0.87;;;;;;;;;;5040738;28;20210;-62
2022/08/08 05:55:16;;;;;;;0.93;0.93;;;;;;;;;;5061730;28;20214;-62
2022/08/08 05:58:03;;;;;;;0.87;0.87;;;;;;;;;;5052300;28;20214;-62
2022/08/08 06:00:52;;;;;;;0.80;0.80;;;;;;;;;;5058649;28;20802;-62
2022/08/08 06:03:41;;;;;;;0.90;0.90;;;;;;;;;;5045134;28;20204;-62
2022/08/08 06:06:30;;;;;;;1.43;0.93;;;;;;;;;;5060188;28;20234;-62
2022/08/08 06:09:22;;;;;;;0.70;0.70;;;;;;;;;;5052607;28;20215;-62
2022/08/08 06:12:11;;;;;;;1.03;0.93;;;;;;;;;;5060463;28;20203;-61
2022/08/08 06:15:00;;;;;;;1.00;1.00;;;;;;;;;;5048156;28;20208;-62
2022/08/08 06:17:49;;;;;;;1.17;1.07;;;;;;;;;;5059412;28;20237;-62
2022/08/08 06:20:37;;;;;;;0.90;0.90;;;;;;;;;;5044017;28;20631;-62
2022/08/08 06:23:26;;;;;;;1.00;0.80;;;;;;;;;;5049634;28;20749;-62
2022/08/08 06:26:14;;;;;;;0.70;0.70;;;;;;;;;;5051717;28;20199;-61
2022/08/08 06:29:05;;;;;;;0.87;0.87;;;;;;;;;;5057517;28;20283;-62
2022/08/08 06:31:59;;;;;;;1.10;1.10;;;;;;;;;;5057556;28;20667;-62
2022/08/08 06:34:51;;;;;;;1.20;0.90;;;;;;;;;;5056885;28;20205;-61
2022/08/08 06:37:47;;;;;;;0.93;0.93;;;;;;;;;;5058719;28;20204;-62
2022/08/08 06:40:34;;;;;;;0.87;0.87;;;;;;;;;;5052851;28;20287;-62
2022/08/08 06:43:23;;;;;;;0.70;0.70;;;;;;;;;;5060008;28;20207;-62
2022/08/08 06:46:12;;;;;;;1.00;0.90;;;;;;;;;;5048313;28;20288;-62
2022/08/08 06:48:59;;;;;;;0.77;0.77;;;;;;;;;;5061237;28;20215;-62
2022/08/08 06:51:46;;;;;;;0.70;0.70;;;;;;;;;;5052403;28;20584;-62
2022/08/08 06:54:34;;;;;;;0.83;0.83;;;;;;;;;;5056982;28;20282;-62
2022/08/08 06:57:23;;;;;;;1.00;1.00;;;;;;;;;;5053734;28;20240;-62
2022/08/08 07:00:11;;;;;;;0.87;0.63;;;;;;;;;;5058404;28;20206;-62
2022/08/08 07:03:01;;;;;;;0.80;0.80;;;;;;;;;;5050611;28;20692;-61
2022/08/08 07:05:51;;;;;;;0.90;0.90;;;;;;;;;;5058693;28;20278;-62
2022/08/08 07:08:39;;;;;;;1.10;0.90;;;;;;;;;;5056125;28;20210;-62
2022/08/08 07:11:29;;;;;;;0.80;0.80;;;;;;;;;;5054156;28;20276;-62
2022/08/08 07:14:17;;;;;;;0.90;0.90;;;;;;;;;;5045425;28;20232;-62
2022/08/08 07:17:06;;;;;;;1.17;1.07;;;;;;;;;;5054109;28;20210;-62
2022/08/08 07:20:03;;;;;;;1.20;1.10;;;;;;;;;;5055935;28;20209;-62
2022/08/08 07:23:01;;;;;;;1.03;1.00;;;;;;;;;;5049155;28;20226;-62
2022/08/08 07:25:50;;;;;;;0.90;0.90;;;;;;;;;;5048440;28;20226;-62
2022/08/08 07:28:37;;;;;;;1.03;1.00;;;;;;;;;;5039326;28;20221;-62
2022/08/08 07:31:25;;;;;;;1.20;1.10;;;;;;;;;;5034815;28;20586;-62
2022/08/08 07:34:13;;;;;;;0.90;0.70;;;;;;;;;;5037018;28;20206;-62
2022/08/08 07:37:03;;;;;;;1.15;1.05;;;;;;;;;;5023135;28;20678;-62
2022/08/08 07:39:50;;;;;;;1.00;0.90;;;;;;;;;;5027371;28;20207;-62
2022/08/08 07:42:39;;;;;;;0.90;0.90;;;;;;;;;;5035658;28;20233;-62
2022/08/08 07:45:26;;;;;;;1.23;1.03;;;;;;;;;;5029174;28;20221;-62
2022/08/08 07:48:13;;;;;;;0.97;0.97;;;;;;;;;;5031971;28;20206;-62
2022/08/08 07:51:01;;;;;;;1.00;1.00;;;;;;;;;;5028541;28;20654;-62
2022/08/08 07:54:11;;;;;;;1.20;0.80;;;;;;;;;;5036625;28;20209;-62
2022/08/08 07:57:06;;;;;;;1.30;1.20;;;;;;;;;;5030499;28;20679;-61
2022/08/08 07:59:59;;;;;;;1.13;1.03;;;;;;;;;;5029928;28;20234;-62
2022/08/08 08:02:52;;;;;;;1.00;1.00;;;;;;;;;;5031425;28;20233;-62
2022/08/08 08:05:42;;;;;;;1.23;1.17;;;;;;;;;;5040098;28;20231;-62
2022/08/08 08:08:37;;;;;;;0.93;0.90;;;;;;;;;;5031353;28;20652;-62
2022/08/08 08:11:28;;;;;;;1.37;1.27;;;;;;;;;;5035638;28;20210;-61
2022/08/08 08:14:18;;;;;;;1.00;1.00;;;;;;;;;;5034667;28;20202;-62
2022/08/08 08:17:06;;;;;;;1.23;1.03;;;;;;;;;;5029352;28;20219;-62
2022/08/08 08:19:58;;;;;;;1.07;1.00;;;;;;;;;;5031047;28;20278;-62
2022/08/08 08:22:46;;;;;;;1.10;1.10;;;;;;;;;;5029945;28;20578;-62
2022/08/08 08:25:33;;;;;;;1.20;1.10;;;;;;;;;;5035335;28;20352;-62
2022/08/08 08:28:21;;;;;;;1.00;0.90;;;;;;;;;;5049203;28;20599;-62
2022/08/08 08:31:09;;;;;;;1.80;0.82;;;;;;;;;;5056360;28;20329;-62
2022/08/08 08:33:56;;;;;;;1.17;0.90;;;;;;;;;;5057503;28;20204;-62
2022/08/08 08:36:44;;;;;;;1.23;1.10;;;;;;;;;;5062854;28;20220;-62
2022/08/08 08:39:31;;;;;;;0.77;0.77;;;;;;;;;;5057348;28;20207;-62
2022/08/08 08:42:18;;;;;;;0.80;0.80;;;;;;;;;;5057280;28;20689;-62
2022/08/08 08:45:08;;;;;;;0.80;0.80;;;;;;;;;;5056711;28;20283;-62
2022/08/08 08:47:55;;;;;;;1.40;1.00;;;;;;;;;;5060688;28;20210;-61
2022/08/08 08:50:44;;;;;;;0.90;0.90;;;;;;;;;;5058499;28;20209;-62
2022/08/08 08:53:36;;;;;;;1.37;1.33;;;;;;;;;;5059043;28;20208;-62
2022/08/08 08:56:24;;;;;;;1.20;1.10;;;;;;;;;;5049018;28;20243;-62
2022/08/08 08:59:12;;;;;;;1.83;1.23;;;;;;;;;;5061884;28;20449;-62
2022/08/08 09:02:02;;;;;;;0.70;0.70;;;;;;;;;;5048719;28;20339;-61
2022/08/08 09:04:55;;;;;;;1.15;1.08;;;;;;;;;;5052211;28;20201;-62
2022/08/08 09:07:43;;;;;;;1.30;1.08;;;;;;;;;;5042307;28;20225;-63
2022/08/08 09:10:33;;;;;;;1.30;1.20;;;;;;;;;;5049664;28;20214;-61
2022/08/08 09:13:21;;;;;;;2.47;1.13;;;;;;;;;;5058443;28;20205;-62
2022/08/08 09:16:08;;;;;;;0.80;0.80;;;;;;;;;;5058699;28;20628;-61
2022/08/08 09:18:57;;;;;;;1.50;1.25;;;;;;;;;;5052905;28;20210;-62
2022/08/08 09:21:45;;;;;;;1.52;1.00;;;;;;;;;;5054672;28;20230;-61
2022/08/08 09:24:34;;;;;;;0.98;0.88;;;;;;;;;;5058911;28;20677;-62
2022/08/08 09:27:21;;;;;;;1.08;1.00;;;;;;;;;;5048496;28;20247;-62
2022/08/08 09:30:13;;;;;;;1.10;0.95;;;;;;;;;;5058096;28;20299;-62
2022/08/08 09:33:03;;;;;;;0.90;0.90;;;;;;;;;;5054952;28;20208;-62
2022/08/08 09:35:52;;;;;;;0.85;0.85;;;;;;;;;;5057207;28;20259;-62
2022/08/08 09:38:47;;;;;;;1.00;1.00;;;;;;;;;;5049767;28;20670;-62
2022/08/08 09:41:38;;;;;;;1.02;0.90;;;;;;;;;;5054927;28;20227;-62
2022/08/08 09:44:35;;;;;;;1.15;1.05;;;;;;;;;;5059195;28;20214;-62
2022/08/08 09:47:23;;;;;;;0.80;0.80;;;;;;;;;;5060809;28;20208;-62
2022/08/08 09:50:11;;;;;;;0.65;0.65;;;;;;;;;;5050499;28;20205;-62
2022/08/08 09:53:02;;;;;;;1.10;1.10;;;;;;;;;;5060093;28;20210;-62
2022/08/08 09:55:49;;;;;;;1.00;1.00;;;;;;;;;;5047709;28;20262;-62
2022/08/08 09:58:38;;;;;;;1.15;0.85;;;;;;;;;;5062545;28;20672;-62
2022/08/08 10:01:27;;;;;;;0.80;0.80;;;;;;;;;;5041584;28;20217;-62
2022/08/08 10:04:15;;;;;;;0.80;0.80;;;;;;;;;;5062311;28;20301;-62
2022/08/08 10:07:03;;;;;;;0.93;0.93;;;;;;;;;;5053171;28;20713;-62
2022/08/08 10:09:52;;;;;;;1.05;0.90;;;;;;;;;;5059507;28;20218;-62
2022/08/08 10:12:40;;;;;;;1.05;1.00;;;;;;;;;;5048823;28;20200;-62
2022/08/08 10:15:35;;;;;;;0.95;0.95;;;;;;;;;;5063356;28;20301;-62
2022/08/08 10:18:26;;;;;;;1.00;1.00;;;;;;;;;;5054022;28;20207;-62
2022/08/08 10:21:17;;;;;;;0.68;0.68;;;;;;;;;;5052487;28;20220;-62
2022/08/08 10:24:06;;;;;;;0.93;0.90;;;;;;;;;;5045737;28;20257;-62
2022/08/08 10:27:00;;;;;;;1.02;1.02;;;;;;;;;;5051554;28;20244;-62
2022/08/08 10:29:53;;;;;;;0.85;0.85;;;;;;;;;;5055573;28;20270;-62
2022/08/08 10:32:42;;;;;;;0.90;0.90;;;;;;;;;;5058613;28;20200;-62
2022/08/08 10:35:31;;;;;;;1.15;1.15;;;;;;;;;;5055249;28;20238;-62
2022/08/08 10:38:19;;;;;;;0.95;0.95;;;;;;;;;;5053109;28;20211;-62
2022/08/08 10:41:08;;;;;;;0.60;0.60;;;;;;;;;;5051580;28;20205;-62
2022/08/08 10:43:58;;;;;;;0.73;0.73;;;;;;;;;;5049224;28;20591;-62
2022/08/08 10:46:45;;;;;;;0.85;0.70;;;;;;;;;;5061241;28;20217;-61
2022/08/08 10:49:32;;;;;;;0.88;0.80;;;;;;;;;;5043971;28;20210;-61
2022/08/08 10:52:27;;;;;;;0.88;0.88;;;;;;;;;;5062193;28;20206;-62
2022/08/08 10:55:16;;;;;;;1.00;0.80;;;;;;;;;;5057291;28;20214;-62
2022/08/08 10:58:05;;;;;;;0.93;0.93;;;;;;;;;;5063717;28;20207;-62
2022/08/08 11:00:53;;;;;;;0.80;0.80;;;;;;;;;;5051953;28;20223;-62
2022/08/08 11:03:42;;;;;;;0.93;0.90;;;;;;;;;;5058113;28;20222;-62
2022/08/08 11:06:30;;;;;;;1.00;0.90;;;;;;;;;;5055705;28;20239;-62
2022/08/08 11:09:17;;;;;;;0.70;0.70;;;;;;;;;;5062053;28;20290;-62
2022/08/08 11:12:05;;;;;;;0.90;0.90;;;;;;;;;;5051040;28;20207;-62
2022/08/08 11:14:55;;;;;;;0.60;0.60;;;;;;;;;;5047174;28;20214;-62
2022/08/08 11:17:45;;;;;;;0.70;0.70;;;;;;;;;;5039677;28;20219;-62
2022/08/08 11:20:32;;;;;;;0.73;0.73;;;;;;;;;;5057240;28;20211;-62
2022/08/08 11:23:21;;;;;;;0.95;0.95;;;;;;;;;;5049278;28;20307;-62
2022/08/08 11:26:12;;;;;;;0.60;0.60;;;;;;;;;;5056526;28;20205;-62
2022/08/08 11:29:02;;;;;;;0.77;0.75;;;;;;;;;;5040255;28;20694;-62
2022/08/08 11:31:51;;;;;;;0.77;0.77;;;;;;;;;;5059733;28;20207;-62
2022/08/08 11:34:43;;;;;;;0.57;0.57;;;;;;;;;;5053335;28;20683;-62
2022/08/08 11:37:31;;;;;;;0.50;0.50;;;;;;;;;;5060084;28;20210;-62
2022/08/08 11:40:18;;;;;;;0.80;0.77;;;;;;;;;;5057616;28;20610;-62
2022/08/08 11:43:06;;;;;;;0.75;0.75;;;;;;;;;;5045478;28;20234;-62
2022/08/08 11:45:53;;;;;;;0.90;0.90;;;;;;;;;;5049723;28;20230;-62
2022/08/08 11:48:41;;;;;;;0.80;0.80;;;;;;;;;;5052421;28;20213;-62
2022/08/08 11:51:31;;;;;;;0.93;0.90;;;;;;;;;;5045443;28;20263;-62
2022/08/08 11:54:18;;;;;;;0.60;0.60;;;;;;;;;;5046197;28;20228;-62
2022/08/08 11:57:10;;;;;;;0.68;0.60;;;;;;;;;;5058858;28;20207;-62
2022/08/08 11:59:58;;;;;;;0.80;0.80;;;;;;;;;;5054829;28;20207;-62
2022/08/08 12:02:47;;;;;;;0.65;0.65;;;;;;;;;;5047840;28;20259;-62
2022/08/08 12:05:37;;;;;;;0.68;0.68;;;;;;;;;;5050084;28;20241;-62
2022/08/08 12:08:33;;;;;;;0.68;0.68;;;;;;;;;;5057260;28;20200;-62
2022/08/08 12:11:20;;;;;;;0.73;0.73;;;;;;;;;;5047753;28;20203;-62
2022/08/08 12:14:07;;;;;;;0.63;0.63;;;;;;;;;;5050803;28;20447;-62
2022/08/08 12:16:55;;;;;;;0.85;0.85;;;;;;;;;;5043770;28;20215;-61
2022/08/08 12:19:42;;;;;;;0.80;0.80;;;;;;;;;;5058884;28;20291;-62
2022/08/08 12:22:30;;;;;;;0.70;0.70;;;;;;;;;;5047873;28;20362;-62
2022/08/08 12:25:24;;;;;;;0.60;0.60;;;;;;;;;;5061766;28;20208;-62
2022/08/08 12:28:14;;;;;;;0.60;0.60;;;;;;;;;;5048790;28;20232;-62
2022/08/08 12:31:05;;;;;;;0.50;0.50;;;;;;;;;;5049769;28;20208;-62
2022/08/08 12:33:52;;;;;;;0.52;0.52;;;;;;;;;;5048105;28;20207;-62
2022/08/08 12:36:40;;;;;;;0.60;0.60;;;;;;;;;;5054637;28;20580;-62
2022/08/08 12:39:27;;;;;;;0.70;0.70;;;;;;;;;;5041843;28;20265;-62
2022/08/08 12:42:15;;;;;;;0.80;0.70;;;;;;;;;;5049079;28;20208;-62
2022/08/08 12:45:08;;;;;;;0.60;0.60;;;;;;;;;;5049627;28;20251;-62
2022/08/08 12:47:59;;;;;;;0.70;0.70;;;;;;;;;;5052976;28;20215;-62
2022/08/08 12:50:48;;;;;;;0.75;0.75;;;;;;;;;;5056907;28;20732;-62
2022/08/08 12:53:35;;;;;;;0.68;0.68;;;;;;;;;;5046151;28;20211;-62
2022/08/08 12:56:32;;;;;;;0.60;0.60;;;;;;;;;;5053813;28;20655;-62
2022/08/08 12:59:22;;;;;;;0.80;0.80;;;;;;;;;;5049443;28;20335;-62
2022/08/08 13:02:21;;;;;;;0.60;0.60;;;;;;;;;;5047238;28;20596;-62
2022/08/08 13:05:23;;;;;;;0.70;0.70;;;;;;;;;;5037937;28;20232;-62
2022/08/08 13:08:16;;;;;;;0.52;0.52;;;;;;;;;;5053671;28;20302;-62
2022/08/08 13:11:04;;;;;;;0.57;0.57;;;;;;;;;;5037086;28;20209;-62
2022/08/08 13:14:02;;;;;;;0.50;0.50;;;;;;;;;;5061835;28;20199;-62
2022/08/08 13:16:51;;;;;;;0.50;0.50;;;;;;;;;;5044011;28;20339;-62
2022/08/08 13:19:38;;;;;;;0.80;0.80;;;;;;;;;;5057427;28;20672;-62
2022/08/08 13:22:25;;;;;;;0.60;0.60;;;;;;;;;;5049258;28;20248;-62
2022/08/08 13:25:16;;;;;;;0.60;0.60;;;;;;;;;;5052292;28;20227;-62
2022/08/08 13:28:03;;;;;;;0.70;0.70;;;;;;;;;;5051295;28;20232;-62
2022/08/08 13:30:50;;;;;;;0.40;0.40;;;;;;;;;;5061522;28;20219;-62
2022/08/08 13:33:40;;;;;;;0.73;0.73;;;;;;;;;;5057696;28;20315;-61
2022/08/08 13:36:27;;;;;;;0.65;0.57;;;;;;;;;;5057392;28;20753;-62
2022/08/08 13:39:15;;;;;;;0.40;0.40;;;;;;;;;;5056061;28;20364;-62
2022/08/08 13:42:02;;;;;;;1.17;0.70;;;;;;;;;;5060549;28;20218;-62
2022/08/08 13:44:54;;;;;;;0.45;0.45;;;;;;;;;;5051824;28;20207;-62
2022/08/08 13:47:41;;;;;;;0.50;0.50;;;;;;;;;;5060689;28;20231;-62
2022/08/08 13:50:32;;;;;;;0.60;0.60;;;;;;;;;;5059817;28;20215;-62
2022/08/08 13:53:28;;;;;;;0.40;0.40;;;;;;;;;;5060995;28;20212;-62
2022/08/08 13:56:15;;;;;;;0.60;0.60;;;;;;;;;;5059135;28;20238;-62
2022/08/08 13:59:03;;;;;;;0.47;0.47;;;;;;;;;;5059997;28;20206;-62
2022/08/08 14:01:55;;;;;;;0.70;0.70;;;;;;;;;;5061249;28;20426;-62
2022/08/08 14:05:02;;;;;;;0.73;0.73;;;;;;;;;;5044730;28;20363;-62
2022/08/08 14:07:50;;;;;;;0.80;0.80;;;;;;;;;;5059986;28;20211;-62
2022/08/08 14:10:38;;;;;;;0.80;0.80;;;;;;;;;;5052304;28;20256;-62
2022/08/08 14:13:25;;;;;;;0.77;0.75;;;;;;;;;;5064732;28;20753;-62
2022/08/08 14:16:13;;;;;;;0.60;0.60;;;;;;;;;;5043549;28;20254;-62
2022/08/08 14:19:01;;;;;;;0.50;0.50;;;;;;;;;;5059389;28;20218;-62
2022/08/08 14:21:48;;;;;;;0.45;0.45;;;;;;;;;;5054564;28;20396;-62
2022/08/08 14:24:37;;;;;;;0.60;0.60;;;;;;;;;;5049866;28;20337;-62
2022/08/08 14:27:27;;;;;;;0.43;0.43;;;;;;;;;;5049683;28;20333;-61
2022/08/08 14:30:15;;;;;;;0.57;0.57;;;;;;;;;;5061894;28;20222;-62
2022/08/08 14:33:04;;;;;;;0.40;0.40;;;;;;;;;;5040730;28;20208;-62
2022/08/08 14:35:58;;;;;;;0.50;0.50;;;;;;;;;;5057331;28;20209;-62
2022/08/08 14:38:45;;;;;;;0.52;0.52;;;;;;;;;;5043610;28;20206;-62
2022/08/08 14:41:42;;;;;;;0.57;0.57;;;;;;;;;;5060132;28;20207;-62
2022/08/08 14:44:29;;;;;;;0.73;0.60;;;;;;;;;;5048476;28;20235;-62
2022/08/08 14:47:16;;;;;;;0.50;0.50;;;;;;;;;;5051815;28;20211;-62
2022/08/08 14:50:06;;;;;;;0.57;0.57;;;;;;;;;;5043940;28;20210;-62
2022/08/08 14:52:55;;;;;;;0.50;0.50;;;;;;;;;;5044441;28;20444;-62
2022/08/08 14:55:42;;;;;;;0.40;0.40;;;;;;;;;;5055748;28;20287;-62
2022/08/08 14:58:31;;;;;;;0.60;0.60;;;;;;;;;;5056015;28;20221;-62
2022/08/08 15:01:19;;;;;;;0.70;0.70;;;;;;;;;;5056443;28;20210;-62
2022/08/08 15:04:07;;;;;;;0.50;0.50;;;;;;;;;;5046151;28;20226;-62
2022/08/08 15:06:54;;;;;;;0.50;0.50;;;;;;;;;;5062134;28;20592;-62
2022/08/08 15:09:41;;;;;;;0.60;0.60;;;;;;;;;;5055782;28;20210;-62
2022/08/08 15:12:29;;;;;;;0.50;0.50;;;;;;;;;;5049417;28;20688;-62
2022/08/08 15:15:18;;;;;;;0.60;0.60;;;;;;;;;;5051372;28;20221;-62
2022/08/08 15:18:06;;;;;;;0.60;0.60;;;;;;;;;;5062201;28;20555;-62
2022/08/08 15:20:53;;;;;;;0.60;0.60;;;;;;;;;;5056209;28;20216;-62
2022/08/08 15:23:40;;;;;;;0.50;0.50;;;;;;;;;;5062414;28;20238;-62
2022/08/08 15:26:27;;;;;;;0.50;0.50;;;;;;;;;;5049340;28;20202;-62
2022/08/08 15:29:14;;;;;;;0.50;0.50;;;;;;;;;;5062474;28;20217;-62
2022/08/08 15:32:03;;;;;;;0.50;0.50;;;;;;;;;;5044528;28;20594;-62
2022/08/08 15:34:50;;;;;;;0.70;0.70;;;;;;;;;;5057314;28;20236;-61
2022/08/08 15:37:37;;;;;;;0.70;0.60;;;;;;;;;;5051821;28;20209;-62
2022/08/08 15:40:24;;;;;;;0.35;0.35;;;;;;;;;;5052010;28;20223;-62
2022/08/08 15:43:11;;;;;;;0.55;0.55;;;;;;;;;;5049836;28;20674;-62
2022/08/08 15:45:58;;;;;;;0.37;0.37;;;;;;;;;;5059692;28;20206;-62
2022/08/08 15:48:46;;;;;;;0.50;0.50;;;;;;;;;;5042881;28;20218;-62
2022/08/08 15:51:33;;;;;;;0.40;0.40;;;;;;;;;;5055398;28;20647;-62
2022/08/08 15:54:21;;;;;;;0.68;0.68;;;;;;;;;;5044929;28;20415;-62
2022/08/08 15:57:10;;;;;;;0.52;0.52;;;;;;;;;;5049760;28;20216;-62
2022/08/08 15:59:56;;;;;;;0.50;0.50;;;;;;;;;;5042696;28;20675;-62
2022/08/08 16:02:45;;;;;;;0.40;0.40;;;;;;;;;;5048893;28;20213;-62
2022/08/08 16:05:33;;;;;;;0.50;0.50;;;;;;;;;;5047979;28;20225;-62
2022/08/08 16:08:20;;;;;;;0.80;0.80;;;;;;;;;;5051835;28;20234;-61
2022/08/08 16:11:07;;;;;;;0.60;0.60;;;;;;;;;;5042657;28;20213;-62
2022/08/08 16:13:54;;;;;;;0.40;0.40;;;;;;;;;;5050600;28;20579;-62
2022/08/08 16:16:41;;;;;;;0.53;0.53;;;;;;;;;;5048492;28;20689;-62
2022/08/08 16:19:29;;;;;;;0.40;0.40;;;;;;;;;;5047138;28;20585;-62
2022/08/08 16:22:17;;;;;;;0.50;0.50;;;;;;;;;;5051075;28;20208;-62
2022/08/08 16:25:05;;;;;;;0.60;0.60;;;;;;;;;;5043211;28;20320;-62
2022/08/08 16:27:52;;;;;;;0.60;0.60;;;;;;;;;;5049423;28;20236;-62
2022/08/08 16:30:40;;;;;;;0.63;0.63;;;;;;;;;;5041608;28;20677;-62
2022/08/08 16:33:26;;;;;;;0.63;0.43;;;;;;;;;;5052410;28;20205;-62
2022/08/08 16:36:14;;;;;;;0.40;0.40;;;;;;;;;;5046629;28;20676;-62
2022/08/08 16:39:02;;;;;;;0.60;0.60;;;;;;;;;;5047637;28;20214;-61
2022/08/08 16:41:49;;;;;;;0.50;0.50;;;;;;;;;;5040689;28;20225;-62
2022/08/08 16:44:36;;;;;;;0.50;0.50;;;;;;;;;;5051785;28;20231;-62
2022/08/08 16:47:25;;;;;;;0.53;0.53;;;;;;;;;;5047024;28;20212;-62
2022/08/08 16:50:15;;;;;;;0.60;0.60;;;;;;;;;;5053600;28;20206;-62
2022/08/08 16:53:02;;;;;;;0.90;0.70;;;;;;;;;;5048927;28;20801;-62
2022/08/08 16:55:50;;;;;;;0.60;0.60;;;;;;;;;;5050303;28;20201;-62
2022/08/08 16:58:37;;;;;;;0.60;0.60;;;;;;;;;;5048504;28;20208;-62
2022/08/08 17:01:24;;;;;;;0.60;0.60;;;;;;;;;;5052481;28;20219;-62
2022/08/08 17:04:11;;;;;;;0.40;0.40;;;;;;;;;;5051430;28;20231;-62
2022/08/08 17:06:58;;;;;;;0.60;0.60;;;;;;;;;;5052291;28;20232;-62
2022/08/08 17:09:45;;;;;;;0.60;0.60;;;;;;;;;;5052745;28;20215;-62
2022/08/08 17:12:34;;;;;;;0.57;0.53;;;;;;;;;;5059103;28;20221;-62
2022/08/08 17:15:21;;;;;;;0.60;0.60;;;;;;;;;;5054525;28;20726;-62